sensor_id;sensor_type;location;lat;lon;timestamp;pressure;altitude;pressure_sealevel;temperature
22322;BMP180;11328;53.928;18.522;2024-01-27T00:00:52;99865.00;;;5.00
22322;BMP180;11328;53.928;18.522;2024-01-27T00:03:19;99863.00;;;5.00
22322;BMP180;11328;53.928;18.522;2024-01-27T00:05:46;99862.00;;;5.00
22322;BMP180;11328;53.928;18.522;2024-01-27T00:08:13;99858.00;;;5.00
22322;BMP180;11328;53.928;18.522;2024-01-27T00:10:40;99853.00;;;4.90
22322;BMP180;11328;53.928;18.522;2024-01-27T00:13:07;99853.00;;;4.90
22322;BMP180;11328;53.928;18.522;2024-01-27T00:15:34;99851.00;;;4.90
22322;BMP180;11328;53.928;18.522;2024-01-27T00:18:01;99852.00;;;4.90
22322;BMP180;11328;53.928;18.522;2024-01-27T00:20:28;99856.00;;;5.00
22322;BMP180;11328;53.928;18.522;2024-01-27T00:22:55;99857.00;;;5.00
22322;BMP180;11328;53.928;18.522;2024-01-27T00:25:22;99855.00;;;5.00
22322;BMP180;11328;53.928;18.522;2024-01-27T00:27:49;99852.00;;;5.00
22322;BMP180;11328;53.928;18.522;2024-01-27T00:30:16;99865.00;;;5.00
22322;BMP180;11328;53.928;18.522;2024-01-27T00:32:43;99846.00;;;5.00
22322;BMP180;11328;53.928;18.522;2024-01-27T00:35:10;99852.00;;;5.00
22322;BMP180;11328;53.928;18.522;2024-01-27T00:37:41;99854.00;;;4.90
22322;BMP180;11328;53.928;18.522;2024-01-27T00:40:10;99854.00;;;4.90
22322;BMP180;11328;53.928;18.522;2024-01-27T00:42:37;99871.00;;;4.90
22322;BMP180;11328;53.928;18.522;2024-01-27T00:45:05;99847.00;;;5.00
22322;BMP180;11328;53.928;18.522;2024-01-27T00:47:32;99851.00;;;5.00
22322;BMP180;11328;53.928;18.522;2024-01-27T00:49:59;99848.00;;;4.90
22322;BMP180;11328;53.928;18.522;2024-01-27T00:52:26;99854.00;;;4.90
22322;BMP180;11328;53.928;18.522;2024-01-27T00:54:53;99860.00;;;4.90
22322;BMP180;11328;53.928;18.522;2024-01-27T00:57:20;99850.00;;;4.80
22322;BMP180;11328;53.928;18.522;2024-01-27T00:59:48;99853.00;;;4.80
22322;BMP180;11328;53.928;18.522;2024-01-27T01:02:15;99850.00;;;4.80
22322;BMP180;11328;53.928;18.522;2024-01-27T01:04:42;99851.00;;;4.80
22322;BMP180;11328;53.928;18.522;2024-01-27T01:07:09;99846.00;;;4.80
22322;BMP180;11328;53.928;18.522;2024-01-27T01:09:36;99845.00;;;4.80
22322;BMP180;11328;53.928;18.522;2024-01-27T01:12:03;99849.00;;;4.80
22322;BMP180;11328;53.928;18.522;2024-01-27T01:14:31;99836.00;;;4.80
22322;BMP180;11328;53.928;18.522;2024-01-27T01:16:58;99837.00;;;4.80
22322;BMP180;11328;53.928;18.522;2024-01-27T01:19:24;99842.00;;;4.80
22322;BMP180;11328;53.928;18.522;2024-01-27T01:21:52;99847.00;;;4.80
22322;BMP180;11328;53.928;18.522;2024-01-27T01:24:21;99832.00;;;4.80
22322;BMP180;11328;53.928;18.522;2024-01-27T01:26:48;99837.00;;;4.80
22322;BMP180;11328;53.928;18.522;2024-01-27T01:29:16;99844.00;;;4.70
22322;BMP180;11328;53.928;18.522;2024-01-27T01:31:43;99839.00;;;4.70
22322;BMP180;11328;53.928;18.522;2024-01-27T01:34:10;99834.00;;;4.70
22322;BMP180;11328;53.928;18.522;2024-01-27T01:36:37;99834.00;;;4.60
22322;BMP180;11328;53.928;18.522;2024-01-27T01:39:04;99831.00;;;4.60
22322;BMP180;11328;53.928;18.522;2024-01-27T01:41:31;99822.00;;;4.60
22322;BMP180;11328;53.928;18.522;2024-01-27T01:43:59;99841.00;;;4.60
22322;BMP180;11328;53.928;18.522;2024-01-27T01:46:26;99840.00;;;4.60
22322;BMP180;11328;53.928;18.522;2024-01-27T01:48:54;99840.00;;;4.60
22322;BMP180;11328;53.928;18.522;2024-01-27T01:51:22;99855.00;;;4.50
22322;BMP180;11328;53.928;18.522;2024-01-27T01:53:50;99842.00;;;4.40
22322;BMP180;11328;53.928;18.522;2024-01-27T01:56:17;99846.00;;;4.50
22322;BMP180;11328;53.928;18.522;2024-01-27T01:58:45;99844.00;;;4.40
22322;BMP180;11328;53.928;18.522;2024-01-27T02:01:12;99849.00;;;4.40
22322;BMP180;11328;53.928;18.522;2024-01-27T02:03:39;99841.00;;;4.40
22322;BMP180;11328;53.928;18.522;2024-01-27T02:06:06;99836.00;;;4.40
22322;BMP180;11328;53.928;18.522;2024-01-27T02:08:34;99838.00;;;4.40
22322;BMP180;11328;53.928;18.522;2024-01-27T02:11:01;99845.00;;;4.30
22322;BMP180;11328;53.928;18.522;2024-01-27T02:13:29;99841.00;;;4.30
22322;BMP180;11328;53.928;18.522;2024-01-27T02:15:56;99844.00;;;4.20
22322;BMP180;11328;53.928;18.522;2024-01-27T02:18:23;99813.00;;;4.20
22322;BMP180;11328;53.928;18.522;2024-01-27T02:20:50;99834.00;;;4.10
22322;BMP180;11328;53.928;18.522;2024-01-27T02:23:17;99822.00;;;4.10
22322;BMP180;11328;53.928;18.522;2024-01-27T02:25:44;99788.00;;;4.10
22322;BMP180;11328;53.928;18.522;2024-01-27T02:28:11;99798.00;;;4.00
22322;BMP180;11328;53.928;18.522;2024-01-27T02:30:40;99818.00;;;4.10
22322;BMP180;11328;53.928;18.522;2024-01-27T02:33:07;99806.00;;;4.10
22322;BMP180;11328;53.928;18.522;2024-01-27T02:35:34;99805.00;;;4.00
22322;BMP180;11328;53.928;18.522;2024-01-27T02:38:02;99784.00;;;4.00
22322;BMP180;11328;53.928;18.522;2024-01-27T02:40:29;99799.00;;;4.00
22322;BMP180;11328;53.928;18.522;2024-01-27T02:42:56;99806.00;;;3.90
22322;BMP180;11328;53.928;18.522;2024-01-27T02:45:23;99803.00;;;3.90
22322;BMP180;11328;53.928;18.522;2024-01-27T02:47:50;99797.00;;;3.80
22322;BMP180;11328;53.928;18.522;2024-01-27T02:50:18;99800.00;;;3.80
22322;BMP180;11328;53.928;18.522;2024-01-27T02:52:45;99789.00;;;3.90
22322;BMP180;11328;53.928;18.522;2024-01-27T02:55:12;99799.00;;;3.90
22322;BMP180;11328;53.928;18.522;2024-01-27T02:57:41;99810.00;;;3.80
22322;BMP180;11328;53.928;18.522;2024-01-27T03:00:09;99803.00;;;3.80
22322;BMP180;11328;53.928;18.522;2024-01-27T03:02:36;99799.00;;;3.80
22322;BMP180;11328;53.928;18.522;2024-01-27T03:05:03;99804.00;;;3.70
22322;BMP180;11328;53.928;18.522;2024-01-27T03:07:31;99803.00;;;3.70
22322;BMP180;11328;53.928;18.522;2024-01-27T03:09:58;99800.00;;;3.70
22322;BMP180;11328;53.928;18.522;2024-01-27T03:12:25;99808.00;;;3.60
22322;BMP180;11328;53.928;18.522;2024-01-27T03:14:52;99805.00;;;3.70
22322;BMP180;11328;53.928;18.522;2024-01-27T03:17:20;99811.00;;;3.70
22322;BMP180;11328;53.928;18.522;2024-01-27T03:19:47;99810.00;;;3.60
22322;BMP180;11328;53.928;18.522;2024-01-27T03:22:15;99801.00;;;3.60
22322;BMP180;11328;53.928;18.522;2024-01-27T03:24:42;99807.00;;;3.60
22322;BMP180;11328;53.928;18.522;2024-01-27T03:27:09;99818.00;;;3.60
22322;BMP180;11328;53.928;18.522;2024-01-27T03:29:37;99809.00;;;3.60
22322;BMP180;11328;53.928;18.522;2024-01-27T03:32:04;99808.00;;;3.60
22322;BMP180;11328;53.928;18.522;2024-01-27T03:34:32;99822.00;;;3.60
22322;BMP180;11328;53.928;18.522;2024-01-27T03:36:59;99817.00;;;3.60
22322;BMP180;11328;53.928;18.522;2024-01-27T03:39:26;99807.00;;;3.60
22322;BMP180;11328;53.928;18.522;2024-01-27T03:41:54;99811.00;;;3.60
22322;BMP180;11328;53.928;18.522;2024-01-27T03:44:21;99820.00;;;3.60
22322;BMP180;11328;53.928;18.522;2024-01-27T03:46:48;99821.00;;;3.50
22322;BMP180;11328;53.928;18.522;2024-01-27T03:49:15;99828.00;;;3.50
22322;BMP180;11328;53.928;18.522;2024-01-27T03:51:42;99846.00;;;3.50
22322;BMP180;11328;53.928;18.522;2024-01-27T03:54:09;99848.00;;;3.50
22322;BMP180;11328;53.928;18.522;2024-01-27T03:56:36;99846.00;;;3.60
22322;BMP180;11328;53.928;18.522;2024-01-27T03:59:03;99840.00;;;3.60
22322;BMP180;11328;53.928;18.522;2024-01-27T04:01:33;99843.00;;;3.60
22322;BMP180;11328;53.928;18.522;2024-01-27T04:04:00;99855.00;;;3.60
22322;BMP180;11328;53.928;18.522;2024-01-27T04:06:27;99851.00;;;3.50
22322;BMP180;11328;53.928;18.522;2024-01-27T04:08:54;99856.00;;;3.60
22322;BMP180;11328;53.928;18.522;2024-01-27T04:11:22;99856.00;;;3.60
22322;BMP180;11328;53.928;18.522;2024-01-27T04:13:50;99857.00;;;3.70
22322;BMP180;11328;53.928;18.522;2024-01-27T04:16:18;99863.00;;;3.60
22322;BMP180;11328;53.928;18.522;2024-01-27T04:18:46;99871.00;;;3.60
22322;BMP180;11328;53.928;18.522;2024-01-27T04:21:13;99860.00;;;3.60
22322;BMP180;11328;53.928;18.522;2024-01-27T04:23:41;99856.00;;;3.60
22322;BMP180;11328;53.928;18.522;2024-01-27T04:26:08;99865.00;;;3.70
22322;BMP180;11328;53.928;18.522;2024-01-27T04:28:36;99871.00;;;3.60
22322;BMP180;11328;53.928;18.522;2024-01-27T04:31:04;99869.00;;;3.60
22322;BMP180;11328;53.928;18.522;2024-01-27T04:33:31;99873.00;;;3.60
22322;BMP180;11328;53.928;18.522;2024-01-27T04:35:58;99855.00;;;3.70
22322;BMP180;11328;53.928;18.522;2024-01-27T04:38:26;99874.00;;;3.70
22322;BMP180;11328;53.928;18.522;2024-01-27T04:40:53;99866.00;;;3.60
22322;BMP180;11328;53.928;18.522;2024-01-27T04:43:20;99861.00;;;3.60
22322;BMP180;11328;53.928;18.522;2024-01-27T04:45:50;99871.00;;;3.60
22322;BMP180;11328;53.928;18.522;2024-01-27T04:48:17;99883.00;;;3.70
22322;BMP180;11328;53.928;18.522;2024-01-27T04:50:44;99893.00;;;3.70
22322;BMP180;11328;53.928;18.522;2024-01-27T04:53:12;99879.00;;;3.70
22322;BMP180;11328;53.928;18.522;2024-01-27T04:55:39;99893.00;;;3.70
22322;BMP180;11328;53.928;18.522;2024-01-27T04:58:07;99905.00;;;3.80
22322;BMP180;11328;53.928;18.522;2024-01-27T05:00:34;99905.00;;;3.70
22322;BMP180;11328;53.928;18.522;2024-01-27T05:03:02;99917.00;;;3.80
22322;BMP180;11328;53.928;18.522;2024-01-27T05:05:32;99917.00;;;3.80
22322;BMP180;11328;53.928;18.522;2024-01-27T05:08:03;99920.00;;;3.90
22322;BMP180;11328;53.928;18.522;2024-01-27T05:10:30;99925.00;;;3.80
22322;BMP180;11328;53.928;18.522;2024-01-27T05:12:57;99927.00;;;3.80
22322;BMP180;11328;53.928;18.522;2024-01-27T05:15:25;99931.00;;;3.70
22322;BMP180;11328;53.928;18.522;2024-01-27T05:17:52;99919.00;;;3.80
22322;BMP180;11328;53.928;18.522;2024-01-27T05:20:19;99943.00;;;3.90
22322;BMP180;11328;53.928;18.522;2024-01-27T05:22:46;99948.00;;;3.80
22322;BMP180;11328;53.928;18.522;2024-01-27T05:25:13;99951.00;;;3.70
22322;BMP180;11328;53.928;18.522;2024-01-27T05:27:41;99949.00;;;3.70
22322;BMP180;11328;53.928;18.522;2024-01-27T05:30:09;99956.00;;;3.70
22322;BMP180;11328;53.928;18.522;2024-01-27T05:32:36;99970.00;;;3.80
22322;BMP180;11328;53.928;18.522;2024-01-27T05:35:04;99969.00;;;3.80
22322;BMP180;11328;53.928;18.522;2024-01-27T05:37:32;99969.00;;;3.80
22322;BMP180;11328;53.928;18.522;2024-01-27T05:39:59;99973.00;;;3.80
22322;BMP180;11328;53.928;18.522;2024-01-27T05:42:26;99987.00;;;3.70
22322;BMP180;11328;53.928;18.522;2024-01-27T05:44:53;99979.00;;;3.70
22322;BMP180;11328;53.928;18.522;2024-01-27T05:47:20;99989.00;;;3.70
22322;BMP180;11328;53.928;18.522;2024-01-27T05:49:47;99989.00;;;3.60
22322;BMP180;11328;53.928;18.522;2024-01-27T05:52:15;99998.00;;;3.70
22322;BMP180;11328;53.928;18.522;2024-01-27T05:54:52;100006.00;;;3.60
22322;BMP180;11328;53.928;18.522;2024-01-27T05:57:20;100016.00;;;3.60
22322;BMP180;11328;53.928;18.522;2024-01-27T05:59:47;100023.00;;;3.60
22322;BMP180;11328;53.928;18.522;2024-01-27T06:02:14;100019.00;;;3.50
22322;BMP180;11328;53.928;18.522;2024-01-27T06:04:44;100031.00;;;3.40
22322;BMP180;11328;53.928;18.522;2024-01-27T06:07:11;100028.00;;;3.50
22322;BMP180;11328;53.928;18.522;2024-01-27T06:09:38;100049.00;;;3.50
22322;BMP180;11328;53.928;18.522;2024-01-27T06:12:06;100055.00;;;3.50
22322;BMP180;11328;53.928;18.522;2024-01-27T06:14:33;100061.00;;;3.50
22322;BMP180;11328;53.928;18.522;2024-01-27T06:17:04;100053.00;;;3.40
22322;BMP180;11328;53.928;18.522;2024-01-27T06:19:31;100068.00;;;3.40
22322;BMP180;11328;53.928;18.522;2024-01-27T06:21:58;100068.00;;;3.40
22322;BMP180;11328;53.928;18.522;2024-01-27T06:24:28;100080.00;;;3.40
22322;BMP180;11328;53.928;18.522;2024-01-27T06:26:54;100086.00;;;3.40
22322;BMP180;11328;53.928;18.522;2024-01-27T06:29:21;100093.00;;;3.30
22322;BMP180;11328;53.928;18.522;2024-01-27T06:31:49;100112.00;;;3.40
22322;BMP180;11328;53.928;18.522;2024-01-27T06:34:17;100121.00;;;3.30
22322;BMP180;11328;53.928;18.522;2024-01-27T06:36:44;100111.00;;;3.20
22322;BMP180;11328;53.928;18.522;2024-01-27T06:39:11;100118.00;;;3.20
22322;BMP180;11328;53.928;18.522;2024-01-27T06:41:38;100132.00;;;3.20
22322;BMP180;11328;53.928;18.522;2024-01-27T06:44:05;100129.00;;;3.30
22322;BMP180;11328;53.928;18.522;2024-01-27T06:46:33;100147.00;;;3.30
22322;BMP180;11328;53.928;18.522;2024-01-27T06:48:59;100151.00;;;3.40
22322;BMP180;11328;53.928;18.522;2024-01-27T06:51:27;100149.00;;;3.30
22322;BMP180;11328;53.928;18.522;2024-01-27T06:53:54;100169.00;;;3.30
22322;BMP180;11328;53.928;18.522;2024-01-27T06:56:21;100169.00;;;3.20
22322;BMP180;11328;53.928;18.522;2024-01-27T06:58:48;100170.00;;;3.30
22322;BMP180;11328;53.928;18.522;2024-01-27T07:01:15;100179.00;;;3.20
22322;BMP180;11328;53.928;18.522;2024-01-27T07:03:42;100187.00;;;3.30
22322;BMP180;11328;53.928;18.522;2024-01-27T07:06:11;100190.00;;;3.20
22322;BMP180;11328;53.928;18.522;2024-01-27T07:08:38;100199.00;;;3.20
22322;BMP180;11328;53.928;18.522;2024-01-27T07:11:05;100196.00;;;3.20
22322;BMP180;11328;53.928;18.522;2024-01-27T07:13:33;100208.00;;;3.20
22322;BMP180;11328;53.928;18.522;2024-01-27T07:16:00;100225.00;;;3.20
22322;BMP180;11328;53.928;18.522;2024-01-27T07:18:26;100215.00;;;3.30
22322;BMP180;11328;53.928;18.522;2024-01-27T07:20:54;100225.00;;;3.20
22322;BMP180;11328;53.928;18.522;2024-01-27T07:23:21;100236.00;;;3.20
22322;BMP180;11328;53.928;18.522;2024-01-27T07:25:48;100235.00;;;3.30
22322;BMP180;11328;53.928;18.522;2024-01-27T07:28:15;100227.00;;;3.30
22322;BMP180;11328;53.928;18.522;2024-01-27T07:30:45;100253.00;;;3.30
22322;BMP180;11328;53.928;18.522;2024-01-27T07:33:13;100258.00;;;3.30
22322;BMP180;11328;53.928;18.522;2024-01-27T07:35:40;100264.00;;;3.40
22322;BMP180;11328;53.928;18.522;2024-01-27T07:38:07;100277.00;;;3.50
22322;BMP180;11328;53.928;18.522;2024-01-27T07:40:35;100276.00;;;3.50
22322;BMP180;11328;53.928;18.522;2024-01-27T07:43:02;100287.00;;;3.50
22322;BMP180;11328;53.928;18.522;2024-01-27T07:45:30;100291.00;;;3.40
22322;BMP180;11328;53.928;18.522;2024-01-27T07:47:57;100302.00;;;3.40
22322;BMP180;11328;53.928;18.522;2024-01-27T07:50:27;100311.00;;;3.40
22322;BMP180;11328;53.928;18.522;2024-01-27T07:52:54;100310.00;;;3.50
22322;BMP180;11328;53.928;18.522;2024-01-27T07:55:21;100239.00;;;3.50
22322;BMP180;11328;53.928;18.522;2024-01-27T07:57:49;100335.00;;;3.60
22322;BMP180;11328;53.928;18.522;2024-01-27T08:00:16;100347.00;;;3.60
22322;BMP180;11328;53.928;18.522;2024-01-27T08:02:43;100340.00;;;3.60
22322;BMP180;11328;53.928;18.522;2024-01-27T08:05:11;100343.00;;;3.70
22322;BMP180;11328;53.928;18.522;2024-01-27T08:07:38;100348.00;;;3.70
22322;BMP180;11328;53.928;18.522;2024-01-27T08:10:05;100365.00;;;3.90
22322;BMP180;11328;53.928;18.522;2024-01-27T08:12:33;100369.00;;;4.00
22322;BMP180;11328;53.928;18.522;2024-01-27T08:15:01;100377.00;;;3.90
22322;BMP180;11328;53.928;18.522;2024-01-27T08:17:28;100376.00;;;3.80
22322;BMP180;11328;53.928;18.522;2024-01-27T08:19:55;100384.00;;;4.00
22322;BMP180;11328;53.928;18.522;2024-01-27T08:22:23;100392.00;;;4.00
22322;BMP180;11328;53.928;18.522;2024-01-27T08:24:50;100383.00;;;4.20
22322;BMP180;11328;53.928;18.522;2024-01-27T08:27:17;100411.00;;;4.20
22322;BMP180;11328;53.928;18.522;2024-01-27T08:29:44;100416.00;;;4.30
22322;BMP180;11328;53.928;18.522;2024-01-27T08:32:11;100428.00;;;4.30
22322;BMP180;11328;53.928;18.522;2024-01-27T08:34:39;100426.00;;;4.30
22322;BMP180;11328;53.928;18.522;2024-01-27T08:37:18;100437.00;;;4.20
22322;BMP180;11328;53.928;18.522;2024-01-27T08:39:46;100439.00;;;4.20
22322;BMP180;11328;53.928;18.522;2024-01-27T08:42:13;100439.00;;;4.20
22322;BMP180;11328;53.928;18.522;2024-01-27T08:44:40;100445.00;;;4.10
22322;BMP180;11328;53.928;18.522;2024-01-27T08:47:08;100466.00;;;4.10
22322;BMP180;11328;53.928;18.522;2024-01-27T08:49:35;100471.00;;;4.10
22322;BMP180;11328;53.928;18.522;2024-01-27T08:52:03;100475.00;;;4.10
22322;BMP180;11328;53.928;18.522;2024-01-27T08:54:30;100481.00;;;4.00
22322;BMP180;11328;53.928;18.522;2024-01-27T08:56:57;100482.00;;;4.10
22322;BMP180;11328;53.928;18.522;2024-01-27T08:59:24;100497.00;;;4.20
22322;BMP180;11328;53.928;18.522;2024-01-27T09:01:51;100506.00;;;4.30
22322;BMP180;11328;53.928;18.522;2024-01-27T09:04:18;100505.00;;;4.20
22322;BMP180;11328;53.928;18.522;2024-01-27T09:06:46;100515.00;;;4.20
22322;BMP180;11328;53.928;18.522;2024-01-27T09:09:13;100519.00;;;4.10
22322;BMP180;11328;53.928;18.522;2024-01-27T09:11:40;100524.00;;;4.20
22322;BMP180;11328;53.928;18.522;2024-01-27T09:14:07;100500.00;;;4.10
22322;BMP180;11328;53.928;18.522;2024-01-27T09:16:34;100532.00;;;4.00
22322;BMP180;11328;53.928;18.522;2024-01-27T09:19:01;100534.00;;;3.90
22322;BMP180;11328;53.928;18.522;2024-01-27T09:21:29;100539.00;;;3.90
22322;BMP180;11328;53.928;18.522;2024-01-27T09:23:58;100525.00;;;3.90
22322;BMP180;11328;53.928;18.522;2024-01-27T09:26:26;100556.00;;;3.90
22322;BMP180;11328;53.928;18.522;2024-01-27T09:28:53;100554.00;;;4.00
22322;BMP180;11328;53.928;18.522;2024-01-27T09:31:26;100559.00;;;3.90
22322;BMP180;11328;53.928;18.522;2024-01-27T09:33:54;100556.00;;;4.00
22322;BMP180;11328;53.928;18.522;2024-01-27T09:36:22;100563.00;;;4.10
22322;BMP180;11328;53.928;18.522;2024-01-27T09:38:49;100571.00;;;4.10
22322;BMP180;11328;53.928;18.522;2024-01-27T09:41:17;100579.00;;;4.20
22322;BMP180;11328;53.928;18.522;2024-01-27T09:43:46;100577.00;;;4.00
22322;BMP180;11328;53.928;18.522;2024-01-27T09:46:16;100572.00;;;4.10
22322;BMP180;11328;53.928;18.522;2024-01-27T09:48:44;100582.00;;;4.00
22322;BMP180;11328;53.928;18.522;2024-01-27T09:51:12;100587.00;;;4.10
22322;BMP180;11328;53.928;18.522;2024-01-27T09:53:40;100589.00;;;4.00
22322;BMP180;11328;53.928;18.522;2024-01-27T09:56:08;100592.00;;;4.10
22322;BMP180;11328;53.928;18.522;2024-01-27T09:58:37;100603.00;;;4.10
22322;BMP180;11328;53.928;18.522;2024-01-27T10:01:04;100609.00;;;4.10
22322;BMP180;11328;53.928;18.522;2024-01-27T10:03:35;100615.00;;;4.30
22322;BMP180;11328;53.928;18.522;2024-01-27T10:06:08;100623.00;;;4.30
22322;BMP180;11328;53.928;18.522;2024-01-27T10:08:37;100621.00;;;4.10
22322;BMP180;11328;53.928;18.522;2024-01-27T10:11:09;100629.00;;;4.10
22322;BMP180;11328;53.928;18.522;2024-01-27T10:13:37;100625.00;;;4.20
22322;BMP180;11328;53.928;18.522;2024-01-27T10:16:08;100635.00;;;4.20
22322;BMP180;11328;53.928;18.522;2024-01-27T10:18:35;100650.00;;;4.20
22322;BMP180;11328;53.928;18.522;2024-01-27T10:21:17;100638.00;;;4.30
22322;BMP180;11328;53.928;18.522;2024-01-27T10:23:45;100658.00;;;4.30
22322;BMP180;11328;53.928;18.522;2024-01-27T10:26:12;100658.00;;;4.40
22322;BMP180;11328;53.928;18.522;2024-01-27T10:28:39;100665.00;;;4.40
22322;BMP180;11328;53.928;18.522;2024-01-27T10:31:13;100677.00;;;4.40
22322;BMP180;11328;53.928;18.522;2024-01-27T10:33:51;100680.00;;;4.40
22322;BMP180;11328;53.928;18.522;2024-01-27T10:36:19;100680.00;;;4.40
22322;BMP180;11328;53.928;18.522;2024-01-27T10:38:46;100685.00;;;4.40
22322;BMP180;11328;53.928;18.522;2024-01-27T10:41:22;100690.00;;;4.40
22322;BMP180;11328;53.928;18.522;2024-01-27T10:43:53;100700.00;;;4.50
22322;BMP180;11328;53.928;18.522;2024-01-27T10:46:22;100708.00;;;4.50
22322;BMP180;11328;53.928;18.522;2024-01-27T10:48:53;100701.00;;;4.40
22322;BMP180;11328;53.928;18.522;2024-01-27T10:51:32;100712.00;;;4.50
22322;BMP180;11328;53.928;18.522;2024-01-27T10:54:03;100733.00;;;4.50
22322;BMP180;11328;53.928;18.522;2024-01-27T10:56:33;100737.00;;;4.50
22322;BMP180;11328;53.928;18.522;2024-01-27T10:59:04;100749.00;;;4.50
22322;BMP180;11328;53.928;18.522;2024-01-27T11:01:32;100742.00;;;4.60
22322;BMP180;11328;53.928;18.522;2024-01-27T11:04:01;100744.00;;;4.60
22322;BMP180;11328;53.928;18.522;2024-01-27T11:06:32;100763.00;;;4.70
22322;BMP180;11328;53.928;18.522;2024-01-27T11:09:01;100762.00;;;4.70
22322;BMP180;11328;53.928;18.522;2024-01-27T11:11:31;100772.00;;;4.80
22322;BMP180;11328;53.928;18.522;2024-01-27T11:13:58;100775.00;;;4.90
22322;BMP180;11328;53.928;18.522;2024-01-27T11:16:25;100776.00;;;4.90
22322;BMP180;11328;53.928;18.522;2024-01-27T11:18:54;100775.00;;;4.90
22322;BMP180;11328;53.928;18.522;2024-01-27T11:21:22;100776.00;;;4.80
22322;BMP180;11328;53.928;18.522;2024-01-27T11:23:49;100796.00;;;4.90
22322;BMP180;11328;53.928;18.522;2024-01-27T11:26:22;100799.00;;;4.90
22322;BMP180;11328;53.928;18.522;2024-01-27T11:28:50;100808.00;;;4.90
22322;BMP180;11328;53.928;18.522;2024-01-27T11:31:19;100804.00;;;4.90
22322;BMP180;11328;53.928;18.522;2024-01-27T11:33:51;100813.00;;;5.00
22322;BMP180;11328;53.928;18.522;2024-01-27T11:36:23;100812.00;;;5.00
22322;BMP180;11328;53.928;18.522;2024-01-27T11:38:52;100816.00;;;5.10
22322;BMP180;11328;53.928;18.522;2024-01-27T11:41:32;100834.00;;;4.90
22322;BMP180;11328;53.928;18.522;2024-01-27T11:44:00;100837.00;;;5.00
22322;BMP180;11328;53.928;18.522;2024-01-27T11:46:27;100836.00;;;5.20
22322;BMP180;11328;53.928;18.522;2024-01-27T11:48:53;100847.00;;;5.40
22322;BMP180;11328;53.928;18.522;2024-01-27T11:51:21;100855.00;;;5.30
22322;BMP180;11328;53.928;18.522;2024-01-27T11:53:50;100845.00;;;5.20
22322;BMP180;11328;53.928;18.522;2024-01-27T11:56:17;100852.00;;;5.10
22322;BMP180;11328;53.928;18.522;2024-01-27T11:58:49;100860.00;;;5.30
22322;BMP180;11328;53.928;18.522;2024-01-27T12:01:17;100879.00;;;5.30
22322;BMP180;11328;53.928;18.522;2024-01-27T12:03:44;100878.00;;;5.30
22322;BMP180;11328;53.928;18.522;2024-01-27T12:06:12;100885.00;;;5.30
22322;BMP180;11328;53.928;18.522;2024-01-27T12:08:42;100887.00;;;5.30
22322;BMP180;11328;53.928;18.522;2024-01-27T12:11:17;100903.00;;;5.30
22322;BMP180;11328;53.928;18.522;2024-01-27T12:13:51;100904.00;;;5.30
22322;BMP180;11328;53.928;18.522;2024-01-27T12:16:21;100909.00;;;5.20
22322;BMP180;11328;53.928;18.522;2024-01-27T12:18:52;100907.00;;;5.40
22322;BMP180;11328;53.928;18.522;2024-01-27T12:21:23;100927.00;;;5.40
22322;BMP180;11328;53.928;18.522;2024-01-27T12:23:58;100905.00;;;5.30
22322;BMP180;11328;53.928;18.522;2024-01-27T12:26:31;100943.00;;;5.40
22322;BMP180;11328;53.928;18.522;2024-01-27T12:28:59;100934.00;;;5.20
22322;BMP180;11328;53.928;18.522;2024-01-27T12:31:27;100955.00;;;5.50
22322;BMP180;11328;53.928;18.522;2024-01-27T12:33:56;100956.00;;;5.40
22322;BMP180;11328;53.928;18.522;2024-01-27T12:36:26;100966.00;;;5.30
22322;BMP180;11328;53.928;18.522;2024-01-27T12:39:01;100971.00;;;5.40
22322;BMP180;11328;53.928;18.522;2024-01-27T12:41:30;100964.00;;;5.50
22322;BMP180;11328;53.928;18.522;2024-01-27T12:44:01;100983.00;;;5.50
22322;BMP180;11328;53.928;18.522;2024-01-27T12:46:28;100974.00;;;5.60
22322;BMP180;11328;53.928;18.522;2024-01-27T12:48:55;100994.00;;;5.60
22322;BMP180;11328;53.928;18.522;2024-01-27T12:51:23;100994.00;;;5.60
22322;BMP180;11328;53.928;18.522;2024-01-27T12:53:51;100992.00;;;5.60
22322;BMP180;11328;53.928;18.522;2024-01-27T12:56:18;100991.00;;;5.60
22322;BMP180;11328;53.928;18.522;2024-01-27T12:58:45;101007.00;;;5.60
22322;BMP180;11328;53.928;18.522;2024-01-27T13:01:12;100998.00;;;5.50
22322;BMP180;11328;53.928;18.522;2024-01-27T13:03:42;101011.00;;;5.50
22322;BMP180;11328;53.928;18.522;2024-01-27T13:06:12;100987.00;;;5.60
22322;BMP180;11328;53.928;18.522;2024-01-27T13:08:40;101014.00;;;5.60
22322;BMP180;11328;53.928;18.522;2024-01-27T13:11:09;101002.00;;;5.60
22322;BMP180;11328;53.928;18.522;2024-01-27T13:13:36;101016.00;;;5.50
22322;BMP180;11328;53.928;18.522;2024-01-27T13:16:04;101022.00;;;5.50
22322;BMP180;11328;53.928;18.522;2024-01-27T13:18:31;101019.00;;;5.50
22322;BMP180;11328;53.928;18.522;2024-01-27T13:20:58;101033.00;;;5.50
22322;BMP180;11328;53.928;18.522;2024-01-27T13:23:25;101041.00;;;5.30
22322;BMP180;11328;53.928;18.522;2024-01-27T13:25:52;101048.00;;;5.30
22322;BMP180;11328;53.928;18.522;2024-01-27T13:28:39;101057.00;;;5.30
22322;BMP180;11328;53.928;18.522;2024-01-27T13:31:07;101058.00;;;5.40
22322;BMP180;11328;53.928;18.522;2024-01-27T13:33:34;101058.00;;;5.40
22322;BMP180;11328;53.928;18.522;2024-01-27T13:36:02;101067.00;;;5.50
22322;BMP180;11328;53.928;18.522;2024-01-27T13:38:30;101076.00;;;5.70
22322;BMP180;11328;53.928;18.522;2024-01-27T13:40:57;101075.00;;;5.70
22322;BMP180;11328;53.928;18.522;2024-01-27T13:43:24;101087.00;;;5.70
22322;BMP180;11328;53.928;18.522;2024-01-27T13:45:51;101084.00;;;5.70
22322;BMP180;11328;53.928;18.522;2024-01-27T13:48:19;101080.00;;;5.80
22322;BMP180;11328;53.928;18.522;2024-01-27T13:50:46;101083.00;;;5.70
22322;BMP180;11328;53.928;18.522;2024-01-27T13:53:13;101089.00;;;5.70
22322;BMP180;11328;53.928;18.522;2024-01-27T13:55:40;101096.00;;;5.70
22322;BMP180;11328;53.928;18.522;2024-01-27T13:58:10;101104.00;;;5.70
22322;BMP180;11328;53.928;18.522;2024-01-27T14:00:37;101111.00;;;5.70
22322;BMP180;11328;53.928;18.522;2024-01-27T14:03:04;101124.00;;;5.70
22322;BMP180;11328;53.928;18.522;2024-01-27T14:05:31;101109.00;;;5.70